Time;durP1;ratioP1;P1;durP2;ratioP2;P2;SDS_P1;SDS_P2;PMS_P1;PMS_P2;Temp;Humidity;BMP_temperature;BMP_pressure;BME280_temperature;BME280_humidity;BME280_pressure;Samples;Min_cycle;Max_cycle;Signal;HPM_P1;HPM_P2
2022/12/09 00:01:28;;;;;;;18.73;8.20;;;;;;;2.35;68.42;100534.06;4970356;28;96880;-47
2022/12/09 00:03:54;;;;;;;15.97;7.10;;;;;;;2.37;68.29;100528.94;4973413;28;97219;-47
2022/12/09 00:06:25;;;;;;;15.53;7.07;;;;;;;2.39;68.30;100534.69;4980133;28;96890;-47
2022/12/09 00:08:51;;;;;;;13.67;7.03;;;;;;;2.41;68.09;100533.06;4981714;28;97389;-47
2022/12/09 00:11:17;;;;;;;14.90;7.63;;;;;;;2.45;68.24;100527.50;4982907;28;97659;-48
2022/12/09 00:13:43;;;;;;;14.47;7.37;;;;;;;2.43;68.36;100525.25;4980702;28;96903;-47
2022/12/09 00:16:13;;;;;;;16.63;8.17;;;;;;;2.45;68.13;100525.56;4978026;28;101535;-47
2022/12/09 00:18:38;;;;;;;16.50;8.27;;;;;;;2.43;68.04;100525.25;4982066;28;97078;-47
2022/12/09 00:21:11;;;;;;;14.53;7.00;;;;;;;2.44;68.29;100529.47;4977433;28;96733;-47
2022/12/09 00:23:36;;;;;;;14.90;7.37;;;;;;;2.45;68.14;100522.06;4981769;28;97355;-47
2022/12/09 00:26:01;;;;;;;12.13;7.10;;;;;;;2.44;68.09;100532.19;4977194;28;97294;-47
2022/12/09 00:28:27;;;;;;;15.67;6.60;;;;;;;2.48;68.38;100529.34;4978929;28;97508;-47
2022/12/09 00:30:52;;;;;;;14.07;7.43;;;;;;;2.50;68.31;100530.44;4975323;28;96663;-47
2022/12/09 00:33:17;;;;;;;10.53;6.60;;;;;;;2.53;68.18;100531.50;4958383;28;96819;-46
2022/12/09 00:35:43;;;;;;;13.80;6.47;;;;;;;2.47;67.84;100527.84;4956923;28;97132;-47
2022/12/09 00:38:08;;;;;;;15.33;7.37;;;;;;;2.39;67.70;100521.88;4958254;28;97529;-48
2022/12/09 00:40:33;;;;;;;14.20;7.70;;;;;;;2.36;68.43;100522.03;4960021;28;97529;-47
2022/12/09 00:42:59;;;;;;;15.30;7.03;;;;;;;2.35;68.34;100534.81;4960993;28;97211;-47
2022/12/09 00:45:24;;;;;;;12.43;6.80;;;;;;;2.37;68.15;100531.66;4963097;28;97679;-47
2022/12/09 00:47:49;;;;;;;14.10;7.13;;;;;;;2.35;68.33;100529.41;4959857;28;97144;-47
2022/12/09 00:50:15;;;;;;;12.30;6.83;;;;;;;2.36;68.46;100524.72;4973459;28;97079;-47
2022/12/09 00:52:40;;;;;;;13.30;7.10;;;;;;;2.35;68.38;100526.69;4983394;28;97171;-47
2022/12/09 00:55:06;;;;;;;12.60;6.63;;;;;;;2.33;68.22;100529.09;4981823;27;97236;-47
2022/12/09 00:57:31;;;;;;;12.43;6.80;;;;;;;2.31;67.94;100522.56;4983220;27;97604;-47
2022/12/09 00:59:56;;;;;;;13.53;7.23;;;;;;;2.28;67.89;100535.81;4982350;28;97171;-47
2022/12/09 01:02:22;;;;;;;17.37;7.97;;;;;;;2.24;68.05;100532.47;4983139;28;96806;-47
2022/12/09 01:04:50;;;;;;;18.00;7.70;;;;;;;2.24;68.20;100526.28;4983164;28;96798;-46
2022/12/09 01:07:15;;;;;;;13.50;6.67;;;;;;;2.19;68.16;100530.31;4982507;28;98001;-47
2022/12/09 01:09:41;;;;;;;16.13;7.20;;;;;;;2.18;67.91;100534.19;4984494;28;97455;-47
2022/12/09 01:12:06;;;;;;;17.43;8.30;;;;;;;2.19;68.24;100532.25;4981921;28;96942;-47
2022/12/09 01:14:32;;;;;;;21.70;9.60;;;;;;;2.15;68.16;100532.38;4982767;28;97638;-47
2022/12/09 01:16:57;;;;;;;16.77;8.70;;;;;;;2.11;67.94;100544.53;4980586;28;96983;-47
2022/12/09 01:19:22;;;;;;;16.47;8.60;;;;;;;2.05;67.93;100543.56;4984879;28;96605;-47
2022/12/09 01:21:48;;;;;;;16.73;8.40;;;;;;;2.01;67.73;100545.66;4985800;28;96924;-47
2022/12/09 01:24:14;;;;;;;19.97;9.90;;;;;;;2.00;67.97;100552.25;4983532;28;97340;-47
2022/12/09 01:26:39;;;;;;;21.13;10.07;;;;;;;2.00;68.00;100552.25;4976915;28;97224;-46
2022/12/09 01:29:05;;;;;;;17.67;8.60;;;;;;;2.00;68.09;100544.88;4974396;28;96546;-47
2022/12/09 01:31:30;;;;;;;20.03;9.20;;;;;;;2.00;67.93;100552.25;4980154;28;97141;-47
2022/12/09 01:33:56;;;;;;;24.30;9.20;;;;;;;1.99;67.88;100550.72;4984829;28;97126;-47
2022/12/09 01:36:24;;;;;;;15.77;9.23;;;;;;;1.98;67.77;100552.69;4981969;28;97074;-47
2022/12/09 01:38:50;;;;;;;16.13;7.90;;;;;;;1.96;67.92;100554.31;4979922;28;96744;-47
2022/12/09 01:41:17;;;;;;;18.20;8.90;;;;;;;1.93;67.76;100563.31;4978829;28;97643;-47
2022/12/09 01:43:44;;;;;;;15.87;8.43;;;;;;;1.89;67.86;100558.03;4977760;28;97306;-47
2022/12/09 01:46:09;;;;;;;19.00;9.67;;;;;;;1.85;67.94;100551.19;4980033;28;97431;-47
2022/12/09 01:48:44;;;;;;;18.17;9.20;;;;;;;1.84;67.69;100555.06;4985050;28;97876;-47
2022/12/09 01:51:13;;;;;;;23.00;10.00;;;;;;;1.77;67.79;100550.63;4965341;28;97551;-47
2022/12/09 01:53:43;;;;;;;20.50;9.07;;;;;;;1.76;67.81;100543.69;4967358;28;97471;-47
2022/12/09 01:56:14;;;;;;;19.03;9.50;;;;;;;1.76;67.63;100541.00;4969266;28;97320;-46
2022/12/09 01:58:40;;;;;;;20.87;8.60;;;;;;;1.73;67.71;100536.44;4981330;28;97302;-47
2022/12/09 02:01:06;;;;;;;20.07;9.33;;;;;;;1.71;67.60;100540.75;4978449;28;99906;-47
2022/12/09 02:03:31;;;;;;;16.77;8.87;;;;;;;1.62;67.72;100530.56;4981576;28;97442;-47
2022/12/09 02:05:57;;;;;;;14.80;8.50;;;;;;;1.53;67.38;100530.44;4975312;28;97009;-47
2022/12/09 02:08:22;;;;;;;19.83;8.87;;;;;;;1.45;67.46;100529.16;4961360;28;97214;-47
2022/12/09 02:10:59;;;;;;;16.87;8.60;;;;;;;1.34;67.53;100518.63;4963101;28;96841;-47
2022/12/09 02:13:29;;;;;;;14.63;7.67;;;;;;;1.33;68.01;100529.91;4956637;28;97017;-47
2022/12/09 02:15:59;;;;;;;18.03;8.93;;;;;;;1.36;68.21;100524.38;4954773;28;97282;-47
2022/12/09 02:19:35;;;;;;;19.30;8.90;;;;;;;1.39;67.64;100528.94;4959304;28;98014;-47
2022/12/09 02:22:00;;;;;;;18.93;7.50;;;;;;;1.41;68.27;100540.09;4943442;28;97598;-47
2022/12/09 02:24:34;;;;;;;19.47;7.93;;;;;;;1.43;67.99;100536.97;4965662;28;98108;-47
2022/12/09 02:27:14;;;;;;;18.80;8.00;;;;;;;1.46;67.96;100536.09;4966596;28;97918;-46
2022/12/09 02:29:46;;;;;;;16.80;8.20;;;;;;;1.45;67.83;100535.34;4956391;28;101588;-47
2022/12/09 02:32:18;;;;;;;18.70;8.23;;;;;;;1.43;68.05;100532.31;4954746;28;96912;-47
2022/12/09 02:34:52;;;;;;;15.37;8.10;;;;;;;1.41;67.73;100528.50;4972343;28;97369;-47
2022/12/09 02:37:30;;;;;;;16.40;7.73;;;;;;;1.30;67.19;100530.75;4972942;28;101653;-47
2022/12/09 02:40:04;;;;;;;14.80;7.67;;;;;;;1.14;67.49;100528.88;4975407;28;101465;-47
2022/12/09 02:42:34;;;;;;;16.93;7.47;;;;;;;1.08;67.40;100527.13;4964191;28;96818;-47
2022/12/09 02:45:02;;;;;;;16.17;8.23;;;;;;;1.04;67.60;100524.53;4957236;28;96796;-47
2022/12/09 02:47:31;;;;;;;17.37;7.83;;;;;;;0.99;67.56;100527.00;4954677;28;97519;-47
2022/12/09 02:50:03;;;;;;;15.80;7.53;;;;;;;0.93;67.64;100517.91;4964825;28;100220;-47
2022/12/09 02:52:30;;;;;;;16.83;7.70;;;;;;;0.94;68.22;100522.88;4979140;28;97151;-47
2022/12/09 02:54:59;;;;;;;15.27;6.20;;;;;;;0.98;67.96;100523.56;4979833;28;96887;-47
2022/12/09 02:57:28;;;;;;;17.00;7.87;;;;;;;1.00;67.91;100528.53;4976433;28;97924;-47
2022/12/09 02:59:53;;;;;;;15.07;7.63;;;;;;;0.98;68.03;100518.16;4980696;28;97533;-47
2022/12/09 03:02:24;;;;;;;14.43;8.10;;;;;;;1.01;68.08;100522.69;4979341;28;97114;-47
2022/12/09 03:05:29;;;;;;;17.00;7.20;;;;;;;1.02;67.36;100521.50;4977756;28;96851;-47
2022/12/09 03:08:23;;;;;;;11.13;6.53;;;;;;;1.00;67.47;100523.88;4972420;28;101712;-47
2022/12/09 03:10:54;;;;;;;15.27;7.60;;;;;;;0.99;67.46;100525.06;4981596;28;101917;-47
2022/12/09 03:13:32;;;;;;;13.60;7.53;;;;;;;0.98;67.49;100523.56;4971785;28;97075;-47
2022/12/09 03:16:06;;;;;;;14.60;7.60;;;;;;;0.98;67.59;100523.56;4975086;28;97281;-47
2022/12/09 03:18:37;;;;;;;11.13;6.80;;;;;;;0.98;67.83;100520.84;4974764;28;97200;-47
2022/12/09 03:21:04;;;;;;;14.00;7.97;;;;;;;0.97;67.84;100519.31;4960402;28;97054;-47
2022/12/09 03:23:30;;;;;;;17.33;7.37;;;;;;;0.99;67.67;100518.88;4968894;28;96921;-47
2022/12/09 03:25:58;;;;;;;17.70;8.30;;;;;;;0.97;67.50;100513.91;4978860;28;97336;-47
2022/12/09 03:28:31;;;;;;;14.00;7.40;;;;;;;0.94;67.44;100508.59;4973365;28;97526;-47
2022/12/09 03:31:01;;;;;;;19.97;8.23;;;;;;;0.91;67.31;100507.50;4977280;28;97414;-47
2022/12/09 03:33:27;;;;;;;14.97;7.10;;;;;;;0.84;67.48;100507.69;4978057;28;97054;-47
2022/12/09 03:35:58;;;;;;;18.73;9.67;;;;;;;0.74;67.19;100503.34;4976599;28;96885;-47
2022/12/09 03:38:27;;;;;;;17.03;9.33;;;;;;;0.65;67.12;100514.03;4976639;28;97731;-47
2022/12/09 03:41:03;;;;;;;20.93;10.40;;;;;;;0.59;67.27;100504.91;4974676;28;97311;-48
2022/12/09 03:43:34;;;;;;;17.97;8.87;;;;;;;0.55;67.36;100504.22;4975877;28;97564;-47
2022/12/09 03:46:00;;;;;;;17.23;9.00;;;;;;;0.54;67.49;100502.72;4976946;28;96834;-47
2022/12/09 03:48:26;;;;;;;16.30;8.50;;;;;;;0.54;67.24;100500.00;4977245;28;97282;-47
2022/12/09 03:50:58;;;;;;;17.60;8.63;;;;;;;0.51;67.48;100498.91;4978709;28;96929;-47
2022/12/09 03:53:41;;;;;;;15.73;7.90;;;;;;;0.50;67.20;100499.34;4980303;27;97347;-47
2022/12/09 03:56:21;;;;;;;14.20;7.63;;;;;;;0.47;67.10;100494.78;4957605;28;98027;-48
2022/12/09 03:58:52;;;;;;;19.03;8.60;;;;;;;0.44;67.25;100493.69;4960727;28;103731;-47
2022/12/09 04:01:18;;;;;;;15.20;7.60;;;;;;;0.42;67.16;100487.19;4955307;28;97469;-47
2022/12/09 04:03:48;;;;;;;14.87;6.73;;;;;;;0.40;67.21;100490.31;4955523;28;97286;-47
2022/12/09 04:06:13;;;;;;;17.33;7.67;;;;;;;0.39;67.09;100493.47;4961117;28;96841;-47
2022/12/09 04:08:38;;;;;;;15.67;6.60;;;;;;;0.35;67.26;100495.50;4966583;28;97112;-47
2022/12/09 04:11:04;;;;;;;14.60;7.17;;;;;;;0.25;67.13;100488.41;4978075;28;97609;-47
2022/12/09 04:13:29;;;;;;;14.73;7.00;;;;;;;0.24;67.57;100487.63;4980408;28;97334;-47
2022/12/09 04:15:55;;;;;;;18.13;8.03;;;;;;;0.26;67.70;100501.53;4976536;28;97354;-47
2022/12/09 04:18:20;;;;;;;15.20;8.00;;;;;;;0.28;67.50;100488.34;4979664;28;97238;-47
2022/12/09 04:20:45;;;;;;;11.37;6.87;;;;;;;0.31;67.69;100484.00;4980145;28;97127;-47
2022/12/09 04:23:11;;;;;;;17.57;8.50;;;;;;;0.32;67.47;100491.69;4974647;28;96957;-47
2022/12/09 04:25:36;;;;;;;20.90;8.80;;;;;;;0.31;67.12;100492.88;4980685;28;97390;-47
2022/12/09 04:28:02;;;;;;;16.57;8.00;;;;;;;0.30;67.32;100490.59;4979515;28;97712;-47
2022/12/09 04:30:27;;;;;;;15.07;7.80;;;;;;;0.28;67.13;100482.91;4979597;28;97173;-47
2022/12/09 04:32:52;;;;;;;14.90;7.47;;;;;;;0.30;67.20;100485.19;4980989;28;97194;-47
2022/12/09 04:35:18;;;;;;;16.20;8.57;;;;;;;0.30;67.28;100480.53;4973529;28;97216;-48
2022/12/09 04:37:43;;;;;;;17.00;7.70;;;;;;;0.32;67.38;100483.59;4974460;28;97410;-47
2022/12/09 04:40:09;;;;;;;17.13;7.83;;;;;;;0.31;67.05;100473.94;4981288;28;97348;-50
2022/12/09 04:42:35;;;;;;;14.47;8.33;;;;;;;0.30;66.96;100482.47;4984121;28;97182;-48
2022/12/09 04:45:00;;;;;;;13.47;6.83;;;;;;;0.27;67.30;100480.63;4984327;28;97738;-47
2022/12/09 04:47:26;;;;;;;14.50;7.70;;;;;;;0.25;67.21;100480.28;4976905;28;97311;-48
2022/12/09 04:49:51;;;;;;;17.00;8.50;;;;;;;0.26;67.26;100481.81;4975144;28;97220;-47
2022/12/09 04:52:17;;;;;;;15.53;7.70;;;;;;;0.20;67.18;100481.56;4972974;28;97301;-47
2022/12/09 04:54:42;;;;;;;12.33;7.03;;;;;;;0.14;66.82;100485.97;4978249;28;97532;-47
2022/12/09 04:57:07;;;;;;;19.40;9.10;;;;;;;0.07;67.23;100483.44;4973691;28;97299;-48
2022/12/09 04:59:33;;;;;;;13.70;7.97;;;;;;;0.00;67.14;100487.06;4978300;28;97407;-48
2022/12/09 05:01:58;;;;;;;17.33;8.77;;;;;;;-0.03;67.23;100484.47;4978588;27;97058;-48
2022/12/09 05:04:24;;;;;;;20.90;9.57;;;;;;;-0.04;67.31;100485.63;4975383;28;97238;-47
2022/12/09 05:06:49;;;;;;;17.77;7.93;;;;;;;-0.09;67.45;100494.28;4980434;28;97273;-47
2022/12/09 05:09:15;;;;;;;14.90;7.63;;;;;;;-0.11;67.14;100486.56;4982427;28;97149;-48
2022/12/09 05:11:40;;;;;;;14.90;7.80;;;;;;;-0.14;67.13;100486.66;4976901;28;97019;-47
2022/12/09 05:14:06;;;;;;;24.90;8.73;;;;;;;-0.18;67.35;100492.19;4978631;28;97523;-47
2022/12/09 05:16:31;;;;;;;18.30;8.03;;;;;;;-0.20;67.51;100489.09;4979184;28;97540;-47
2022/12/09 05:18:58;;;;;;;12.73;8.03;;;;;;;-0.21;67.53;100484.91;4978205;28;98730;-48
2022/12/09 05:21:24;;;;;;;16.53;7.80;;;;;;;-0.17;67.77;100490.97;4980567;28;97242;-47
2022/12/09 05:23:49;;;;;;;15.07;8.00;;;;;;;-0.14;67.48;100492.84;4976467;28;97665;-47
2022/12/09 05:26:17;;;;;;;17.33;8.37;;;;;;;-0.09;67.76;100480.75;4975591;28;97236;-48
2022/12/09 05:28:43;;;;;;;15.97;8.47;;;;;;;-0.01;67.39;100487.50;4975841;28;97083;-47
2022/12/09 05:31:15;;;;;;;17.13;8.80;;;;;;;0.04;67.69;100491.66;4980276;28;97387;-47
2022/12/09 05:33:42;;;;;;;17.07;9.47;;;;;;;0.02;67.46;100496.72;4981554;28;96773;-47
2022/12/09 05:36:12;;;;;;;32.33;14.07;;;;;;;0.02;67.41;100499.44;4982128;28;97349;-47
2022/12/09 05:38:38;;;;;;;27.67;12.97;;;;;;;0.02;67.25;100496.72;4976004;28;97477;-48
2022/12/09 05:41:04;;;;;;;26.70;12.83;;;;;;;0.03;67.17;100500.94;4978448;28;97312;-48
2022/12/09 05:43:30;;;;;;;21.23;10.53;;;;;;;0.04;67.44;100500.53;4980805;28;96903;-48
2022/12/09 05:45:56;;;;;;;22.50;9.70;;;;;;;0.08;67.56;100497.72;4981101;28;97604;-47
2022/12/09 05:48:21;;;;;;;22.33;10.30;;;;;;;0.08;66.95;100495.03;4982490;27;97257;-48
2022/12/09 05:51:04;;;;;;;21.83;9.30;;;;;;;0.05;67.31;100491.22;4980620;28;96714;-48
2022/12/09 05:53:31;;;;;;;22.60;11.60;;;;;;;0.05;67.29;100493.16;4973657;28;96892;-48
2022/12/09 05:55:56;;;;;;;26.17;11.50;;;;;;;0.10;67.37;100496.13;4980997;28;97483;-47
2022/12/09 05:58:22;;;;;;;20.37;11.40;;;;;;;0.15;67.71;100501.03;4981047;28;97549;-49
2022/12/09 06:00:48;;;;;;;24.90;11.57;;;;;;;0.18;67.29;100497.47;4982292;28;103202;-48
2022/12/09 06:03:13;;;;;;;19.13;10.00;;;;;;;0.21;67.67;100493.16;4981181;28;97697;-48
2022/12/09 06:05:39;;;;;;;22.27;9.33;;;;;;;0.28;67.56;100498.38;4977480;28;97647;-47
2022/12/09 06:08:04;;;;;;;20.70;9.97;;;;;;;0.31;67.23;100495.56;4981556;28;97028;-48
2022/12/09 06:10:30;;;;;;;17.97;8.73;;;;;;;0.26;67.18;100489.94;4981762;28;96732;-48
2022/12/09 06:12:56;;;;;;;18.93;10.37;;;;;;;0.25;67.07;100486.47;4985803;28;97421;-47
2022/12/09 06:15:23;;;;;;;20.57;9.07;;;;;;;0.22;67.07;100495.41;4982435;27;97435;-48
2022/12/09 06:17:48;;;;;;;18.07;9.40;;;;;;;0.22;67.39;100494.69;4983074;28;97418;-47
2022/12/09 06:20:14;;;;;;;23.50;10.17;;;;;;;0.24;67.39;100493.03;4975634;28;97155;-48
2022/12/09 06:22:39;;;;;;;22.43;10.43;;;;;;;0.30;67.88;100496.00;4977735;28;97009;-48
2022/12/09 06:25:05;;;;;;;20.10;9.13;;;;;;;0.34;67.32;100489.31;4975859;28;97842;-48
2022/12/09 06:27:30;;;;;;;19.57;9.10;;;;;;;0.39;67.90;100488.03;4980401;28;96775;-53
2022/12/09 06:29:55;;;;;;;16.57;7.73;;;;;;;0.40;67.88;100484.91;4979242;28;96684;-48
2022/12/09 06:32:21;;;;;;;19.90;9.53;;;;;;;0.45;67.75;100491.75;4983826;28;97325;-49
2022/12/09 06:34:46;;;;;;;21.17;9.30;;;;;;;0.49;67.84;100495.13;4976190;28;103707;-48
2022/12/09 06:37:14;;;;;;;23.90;10.37;;;;;;;0.54;67.75;100489.19;4977130;28;97191;-47
2022/12/09 06:39:40;;;;;;;17.90;8.30;;;;;;;0.56;67.66;100492.22;4980395;28;97422;-48
2022/12/09 06:42:05;;;;;;;22.33;9.17;;;;;;;0.54;67.56;100487.25;4972853;28;97205;-52
2022/12/09 06:44:30;;;;;;;23.87;8.80;;;;;;;0.55;67.29;100490.69;4975320;28;97361;-48
2022/12/09 06:46:56;;;;;;;20.53;9.70;;;;;;;0.58;67.44;100487.16;4982227;28;98267;-47
2022/12/09 06:49:21;;;;;;;18.00;8.80;;;;;;;0.60;67.77;100487.47;4978267;27;97518;-47
2022/12/09 06:51:46;;;;;;;20.50;9.13;;;;;;;0.62;67.40;100485.88;4980203;28;97510;-47
2022/12/09 06:54:12;;;;;;;20.70;9.37;;;;;;;0.64;67.74;100480.78;4977517;28;97833;-48
2022/12/09 06:56:37;;;;;;;19.27;8.90;;;;;;;0.66;67.70;100474.94;4979591;28;97091;-49
2022/12/09 06:59:07;;;;;;;21.00;9.10;;;;;;;0.67;67.59;100471.81;4978978;28;98681;-48
2022/12/09 07:01:33;;;;;;;20.80;8.80;;;;;;;0.68;67.50;100478.72;4981418;28;97165;-48
2022/12/09 07:03:59;;;;;;;21.63;9.30;;;;;;;0.71;67.34;100482.53;4977017;28;97225;-48
2022/12/09 07:06:37;;;;;;;21.80;9.43;;;;;;;0.74;67.81;100489.81;4980502;28;96831;-47
2022/12/09 07:09:11;;;;;;;18.20;8.73;;;;;;;0.76;67.43;100493.56;4978171;28;97188;-48
2022/12/09 07:11:37;;;;;;;18.83;8.77;;;;;;;0.77;67.65;100497.06;4977983;28;97403;-48
2022/12/09 07:14:03;;;;;;;26.53;10.13;;;;;;;0.80;67.59;100490.03;4977815;28;97714;-48
2022/12/09 07:16:29;;;;;;;19.80;8.63;;;;;;;0.80;67.63;100481.91;4983254;28;97450;-48
2022/12/09 07:18:55;;;;;;;18.63;8.80;;;;;;;0.81;67.45;100486.16;4976528;28;96937;-48
2022/12/09 07:21:22;;;;;;;19.50;9.87;;;;;;;0.86;67.70;100499.91;4978710;28;97190;-48
2022/12/09 07:23:47;;;;;;;19.67;8.83;;;;;;;0.89;67.52;100495.56;4975123;28;97358;-48
2022/12/09 07:26:13;;;;;;;23.03;10.57;;;;;;;0.87;67.88;100501.44;4974046;28;103634;-48
2022/12/09 07:28:45;;;;;;;20.03;8.47;;;;;;;0.87;67.63;100492.53;4958871;28;96797;-48
2022/12/09 07:31:23;;;;;;;17.93;8.50;;;;;;;0.86;67.71;100497.19;4967788;28;97928;-48
2022/12/09 07:33:50;;;;;;;16.23;9.13;;;;;;;0.87;67.89;100500.66;4974954;28;97458;-48
2022/12/09 07:36:15;;;;;;;20.70;9.30;;;;;;;0.91;68.09;100496.66;4977895;28;97370;-47
2022/12/09 07:38:41;;;;;;;18.07;8.10;;;;;;;0.92;67.92;100503.59;4977778;28;97235;-47
2022/12/09 07:41:07;;;;;;;18.70;8.20;;;;;;;0.96;67.98;100498.81;4977774;28;97176;-48
2022/12/09 07:43:34;;;;;;;19.50;8.67;;;;;;;0.98;67.96;100496.47;4979924;28;97226;-47
2022/12/09 07:46:05;;;;;;;18.17;9.10;;;;;;;1.02;67.82;100502.56;4976176;28;96959;-47
2022/12/09 07:48:30;;;;;;;22.23;8.87;;;;;;;1.03;67.97;100504.06;4975792;28;97961;-48
2022/12/09 07:50:59;;;;;;;17.60;7.90;;;;;;;1.07;67.92;100496.56;4982929;28;97315;-48
2022/12/09 07:53:24;;;;;;;18.17;8.90;;;;;;;1.11;67.82;100493.78;4961663;28;103700;-48
2022/12/09 07:55:50;;;;;;;14.80;7.73;;;;;;;1.15;68.07;100506.03;4970297;28;97176;-48
2022/12/09 07:58:15;;;;;;;16.37;8.37;;;;;;;1.20;67.71;100499.34;4981714;28;96941;-48
2022/12/09 08:00:41;;;;;;;18.07;8.47;;;;;;;1.24;67.69;100502.69;4979485;28;96937;-48
2022/12/09 08:03:06;;;;;;;18.00;8.47;;;;;;;1.24;67.85;100502.69;4977045;28;96709;-49
2022/12/09 08:05:31;;;;;;;17.13;8.80;;;;;;;1.22;67.68;100500.38;4979610;28;97236;-48
2022/12/09 08:07:57;;;;;;;17.73;8.67;;;;;;;1.21;67.69;100501.59;4976839;28;97860;-48
2022/12/09 08:10:22;;;;;;;12.90;7.30;;;;;;;1.18;67.53;100510.56;4978138;28;97686;-48
2022/12/09 08:12:47;;;;;;;20.27;8.80;;;;;;;1.17;67.91;100514.50;4978139;28;97317;-54
2022/12/09 08:15:15;;;;;;;17.67;8.43;;;;;;;1.17;67.79;100511.78;4977613;28;97937;-48
2022/12/09 08:17:40;;;;;;;18.20;8.40;;;;;;;1.20;67.64;100507.47;4978331;28;99267;-47
2022/12/09 08:20:06;;;;;;;15.27;8.60;;;;;;;1.16;67.53;100512.19;4977520;28;97369;-47
2022/12/09 08:22:33;;;;;;;17.40;8.43;;;;;;;1.14;67.69;100509.94;4976401;28;97445;-48
2022/12/09 08:24:58;;;;;;;16.87;8.10;;;;;;;1.15;67.89;100511.47;4978700;28;97725;-48
2022/12/09 08:27:24;;;;;;;20.97;9.17;;;;;;;1.19;67.97;100511.34;4981695;28;97254;-48
2022/12/09 08:29:49;;;;;;;17.87;8.63;;;;;;;1.19;67.89;100506.69;4981085;28;97481;-48
2022/12/09 08:32:16;;;;;;;19.77;8.80;;;;;;;1.17;67.51;100509.06;4978512;28;97622;-48
2022/12/09 08:34:41;;;;;;;20.70;9.00;;;;;;;1.12;67.63;100514.25;4974587;28;96908;-48
2022/12/09 08:37:07;;;;;;;17.30;8.37;;;;;;;1.10;67.45;100513.94;4973231;28;98025;-48
2022/12/09 08:39:32;;;;;;;23.00;8.90;;;;;;;1.11;67.57;100510.81;4982157;28;97160;-48
2022/12/09 08:41:57;;;;;;;17.90;9.17;;;;;;;1.16;68.03;100515.66;4982247;28;96771;-48
2022/12/09 08:44:23;;;;;;;17.87;8.50;;;;;;;1.25;68.11;100518.50;4980275;28;97405;-48
2022/12/09 08:46:50;;;;;;;17.83;8.27;;;;;;;1.32;67.90;100509.41;4977199;28;97657;-48
2022/12/09 08:49:17;;;;;;;21.83;8.77;;;;;;;1.33;67.94;100516.34;4977651;28;97097;-48
2022/12/09 08:51:44;;;;;;;18.47;7.80;;;;;;;1.39;68.01;100517.34;4976627;28;97785;-48
2022/12/09 08:54:09;;;;;;;17.97;8.03;;;;;;;1.44;67.92;100517.53;4979770;28;97690;-48
2022/12/09 08:56:35;;;;;;;16.93;8.80;;;;;;;1.53;68.25;100514.94;4981220;28;97515;-48
2022/12/09 08:59:00;;;;;;;18.43;8.87;;;;;;;1.60;67.78;100513.97;4977186;28;97098;-48
2022/12/09 09:01:33;;;;;;;15.13;8.17;;;;;;;1.64;67.74;100527.44;4980526;28;97300;-49
2022/12/09 09:04:01;;;;;;;19.80;8.80;;;;;;;1.69;67.94;100522.22;4980258;28;97156;-49
2022/12/09 09:06:26;;;;;;;18.13;8.73;;;;;;;1.73;67.98;100522.09;4983388;28;97043;-48
2022/12/09 09:08:51;;;;;;;16.53;9.27;;;;;;;1.77;67.94;100522.78;4985319;28;97328;-48
2022/12/09 09:11:19;;;;;;;19.17;9.23;;;;;;;1.81;68.12;100520.72;4980696;27;97430;-47
2022/12/09 09:13:47;;;;;;;18.67;7.83;;;;;;;1.86;68.02;100528.28;4982421;27;97713;-48
2022/12/09 09:16:16;;;;;;;22.17;9.97;;;;;;;1.91;67.77;100531.22;4983044;28;97143;-47
2022/12/09 09:18:42;;;;;;;14.40;7.60;;;;;;;1.96;67.81;100525.25;4987475;28;97796;-48
2022/12/09 09:21:09;;;;;;;14.50;7.00;;;;;;;2.00;67.76;100546.81;4984159;28;97764;-48
2022/12/09 09:23:34;;;;;;;18.87;9.00;;;;;;;2.02;67.77;100542.50;4977428;28;97259;-48
2022/12/09 09:26:00;;;;;;;17.53;8.47;;;;;;;2.06;67.70;100537.69;4978603;28;97227;-48
2022/12/09 09:28:25;;;;;;;17.03;8.40;;;;;;;2.07;67.70;100541.94;4978845;28;97095;-48
2022/12/09 09:31:02;;;;;;;16.80;8.57;;;;;;;2.04;67.76;100542.03;4982920;28;96870;-48
2022/12/09 09:33:28;;;;;;;17.47;8.93;;;;;;;2.06;67.89;100542.38;4964124;28;100877;-48
2022/12/09 09:35:57;;;;;;;17.90;8.43;;;;;;;2.08;68.08;100537.25;4961685;28;97248;-48
2022/12/09 09:38:23;;;;;;;19.03;9.30;;;;;;;2.12;68.21;100540.63;4960531;28;97251;-48
2022/12/09 09:40:49;;;;;;;20.80;8.10;;;;;;;2.15;68.24;100534.31;4980827;28;97396;-48
2022/12/09 09:43:16;;;;;;;16.23;9.00;;;;;;;2.19;68.11;100524.09;4979591;28;97682;-48
2022/12/09 09:45:44;;;;;;;21.37;8.70;;;;;;;2.20;68.03;100529.13;4971300;28;96904;-48
2022/12/09 09:48:15;;;;;;;17.90;9.73;;;;;;;2.29;68.09;100529.19;4959943;27;97204;-48
2022/12/09 09:50:56;;;;;;;16.23;8.17;;;;;;;2.35;68.10;100532.13;4956148;27;97413;-48
2022/12/09 09:53:30;;;;;;;16.80;8.50;;;;;;;2.37;68.08;100531.66;4963829;28;97526;-47
2022/12/09 09:56:13;;;;;;;16.10;8.50;;;;;;;2.42;67.87;100526.44;4963713;28;97087;-48
2022/12/09 09:58:47;;;;;;;19.23;8.77;;;;;;;2.46;68.27;100523.59;4975312;28;97372;-48
2022/12/09 10:01:16;;;;;;;17.90;9.43;;;;;;;2.49;68.15;100525.44;4972667;28;101464;-48
2022/12/09 10:04:00;;;;;;;20.53;9.33;;;;;;;2.53;68.18;100526.09;4968490;28;97437;-48
2022/12/09 10:06:50;;;;;;;19.13;8.50;;;;;;;2.59;67.94;100527.03;4974251;28;97140;-47
2022/12/09 10:09:23;;;;;;;16.60;8.20;;;;;;;2.65;68.10;100525.25;4977646;28;97280;-48
2022/12/09 10:12:09;;;;;;;18.00;9.20;;;;;;;2.69;68.10;100521.22;4982168;28;96868;-48
2022/12/09 10:14:40;;;;;;;15.73;9.13;;;;;;;2.71;68.00;100518.09;4957509;28;102371;-48
2022/12/09 10:17:23;;;;;;;18.30;8.90;;;;;;;2.74;68.27;100517.19;4963826;28;96772;-48
2022/12/09 10:19:52;;;;;;;20.73;10.30;;;;;;;2.78;68.25;100523.25;4958978;28;97161;-47
2022/12/09 10:22:25;;;;;;;18.77;9.77;;;;;;;2.83;68.33;100511.84;4956148;28;97849;-48
2022/12/09 10:24:55;;;;;;;19.47;9.47;;;;;;;2.90;68.07;100515.06;4963919;28;97502;-48
2022/12/09 10:27:37;;;;;;;16.73;8.70;;;;;;;2.94;68.27;100521.13;4957845;28;97044;-47
2022/12/09 10:30:11;;;;;;;19.73;9.90;;;;;;;2.98;68.39;100516.31;4958888;28;97288;-47
2022/12/09 10:32:37;;;;;;;22.30;11.40;;;;;;;3.00;68.31;100513.16;4959847;28;97351;-47
2022/12/09 10:35:13;;;;;;;20.73;9.90;;;;;;;3.04;68.06;100514.53;4959775;27;96707;-48
2022/12/09 10:37:39;;;;;;;17.23;9.37;;;;;;;3.11;68.38;100510.81;4957910;28;97276;-48
2022/12/09 10:40:10;;;;;;;17.80;8.60;;;;;;;3.15;68.32;100516.09;4959722;28;97250;-47
2022/12/09 10:45:33;;;;;;;19.40;9.57;;;;;;;3.18;68.39;100512.50;4957861;28;101083;-47
2022/12/09 10:47:59;;;;;;;24.53;11.03;;;;;;;3.20;68.33;100508.13;4960183;28;97247;-49
2022/12/09 10:50:31;;;;;;;18.03;9.13;;;;;;;3.28;68.44;100506.66;4961522;28;97443;-48
2022/12/09 10:53:10;;;;;;;19.80;10.70;;;;;;;3.32;68.33;100510.00;4961581;28;102299;-48
2022/12/09 10:55:40;;;;;;;17.97;10.23;;;;;;;3.37;68.44;100503.22;4955451;28;101949;-48
2022/12/09 10:58:23;;;;;;;20.37;10.37;;;;;;;3.39;68.28;100500.81;4959343;28;96872;-48
2022/12/09 11:01:04;;;;;;;19.20;9.50;;;;;;;3.43;68.27;100504.19;4960960;28;97381;-48
2022/12/09 11:03:48;;;;;;;22.00;10.20;;;;;;;3.44;68.23;100497.53;4957716;28;98170;-48
2022/12/09 11:06:19;;;;;;;19.30;9.27;;;;;;;3.52;68.47;100498.75;4960353;28;101124;-48
2022/12/09 11:08:50;;;;;;;21.00;10.50;;;;;;;3.60;68.51;100505.47;4961316;28;97826;-48
2022/12/09 11:11:17;;;;;;;21.30;11.07;;;;;;;3.63;68.40;100502.59;4959659;28;97277;-48
2022/12/09 11:13:42;;;;;;;19.40;10.10;;;;;;;3.64;68.35;100500.63;4979350;28;97945;-48
2022/12/09 11:16:09;;;;;;;16.37;9.00;;;;;;;3.70;68.33;100494.16;4977809;28;97280;-48
2022/12/09 11:18:42;;;;;;;20.37;9.60;;;;;;;3.75;68.37;100498.25;4977213;28;97195;-48
2022/12/09 11:21:29;;;;;;;19.60;10.10;;;;;;;3.80;68.54;100503.84;4981269;28;96907;-48
2022/12/09 11:23:54;;;;;;;20.53;9.87;;;;;;;3.85;68.52;100499.78;4974036;28;101508;-48
2022/12/09 11:26:29;;;;;;;20.43;10.67;;;;;;;3.90;68.21;100496.47;4978217;28;97604;-48
2022/12/09 11:29:17;;;;;;;21.20;12.20;;;;;;;3.88;68.66;100495.41;4978184;28;97256;-47
2022/12/09 11:31:43;;;;;;;18.30;9.73;;;;;;;3.94;68.60;100505.25;4976533;28;97266;-47
2022/12/09 11:34:22;;;;;;;22.77;10.70;;;;;;;3.97;68.42;100493.47;4977952;28;97937;-53